sensor_id;sensor_type;location;lat;lon;timestamp;temperature;humidity
52867;DHT22;38739;53.324;6.862;2023-02-01T00:02:24;5.90;99.90
52867;DHT22;38739;53.324;6.862;2023-02-01T00:04:50;5.90;99.90
52867;DHT22;38739;53.324;6.862;2023-02-01T00:07:19;5.90;99.90
52867;DHT22;38739;53.324;6.862;2023-02-01T00:09:44;5.90;99.90
52867;DHT22;38739;53.324;6.862;2023-02-01T00:12:10;5.90;99.90
52867;DHT22;38739;53.324;6.862;2023-02-01T00:14:39;5.90;99.90
52867;DHT22;38739;53.324;6.862;2023-02-01T00:17:05;5.90;99.90
52867;DHT22;38739;53.324;6.862;2023-02-01T00:19:34;5.90;99.90
52867;DHT22;38739;53.324;6.862;2023-02-01T00:22:00;5.90;99.90
52867;DHT22;38739;53.324;6.862;2023-02-01T00:24:26;5.90;99.90
52867;DHT22;38739;53.324;6.862;2023-02-01T00:26:57;5.90;99.90
52867;DHT22;38739;53.324;6.862;2023-02-01T00:29:23;5.90;99.90
52867;DHT22;38739;53.324;6.862;2023-02-01T00:31:50;5.90;99.90
52867;DHT22;38739;53.324;6.862;2023-02-01T00:34:17;5.90;99.90
52867;DHT22;38739;53.324;6.862;2023-02-01T00:36:43;5.90;99.90
52867;DHT22;38739;53.324;6.862;2023-02-01T00:39:10;6.00;99.90
52867;DHT22;38739;53.324;6.862;2023-02-01T00:41:38;5.90;99.90
52867;DHT22;38739;53.324;6.862;2023-02-01T00:44:04;6.00;99.90
52867;DHT22;38739;53.324;6.862;2023-02-01T00:46:30;5.90;99.90
52867;DHT22;38739;53.324;6.862;2023-02-01T00:48:56;5.90;99.90
52867;DHT22;38739;53.324;6.862;2023-02-01T00:51:24;6.00;99.90
52867;DHT22;38739;53.324;6.862;2023-02-01T00:53:50;6.00;99.90
52867;DHT22;38739;53.324;6.862;2023-02-01T00:56:16;6.00;99.90
52867;DHT22;38739;53.324;6.862;2023-02-01T00:58:43;6.00;99.90
52867;DHT22;38739;53.324;6.862;2023-02-01T01:01:20;6.00;99.90
52867;DHT22;38739;53.324;6.862;2023-02-01T01:03:49;6.00;99.90
52867;DHT22;38739;53.324;6.862;2023-02-01T01:06:25;6.10;99.90
52867;DHT22;38739;53.324;6.862;2023-02-01T01:08:52;6.10;99.90
52867;DHT22;38739;53.324;6.862;2023-02-01T01:11:20;6.10;99.90
52867;DHT22;38739;53.324;6.862;2023-02-01T01:13:48;6.10;99.90
52867;DHT22;38739;53.324;6.862;2023-02-01T01:16:14;6.10;99.90
52867;DHT22;38739;53.324;6.862;2023-02-01T01:18:40;6.10;99.90
52867;DHT22;38739;53.324;6.862;2023-02-01T01:21:08;6.10;99.90
52867;DHT22;38739;53.324;6.862;2023-02-01T01:23:35;6.10;99.90
52867;DHT22;38739;53.324;6.862;2023-02-01T01:26:05;6.10;99.90
52867;DHT22;38739;53.324;6.862;2023-02-01T01:28:31;6.10;99.90
52867;DHT22;38739;53.324;6.862;2023-02-01T01:30:56;6.10;99.90
52867;DHT22;38739;53.324;6.862;2023-02-01T01:33:22;6.10;99.90
52867;DHT22;38739;53.324;6.862;2023-02-01T01:35:49;6.10;99.90
52867;DHT22;38739;53.324;6.862;2023-02-01T01:38:14;6.10;99.90
52867;DHT22;38739;53.324;6.862;2023-02-01T01:40:47;6.10;99.90
52867;DHT22;38739;53.324;6.862;2023-02-01T01:43:14;6.10;99.90
52867;DHT22;38739;53.324;6.862;2023-02-01T01:45:41;6.10;99.90
52867;DHT22;38739;53.324;6.862;2023-02-01T01:48:27;6.10;99.90
52867;DHT22;38739;53.324;6.862;2023-02-01T01:51:00;6.10;99.90
52867;DHT22;38739;53.324;6.862;2023-02-01T01:53:31;6.10;99.90
52867;DHT22;38739;53.324;6.862;2023-02-01T01:55:58;6.00;99.90
52867;DHT22;38739;53.324;6.862;2023-02-01T01:58:28;6.10;99.90
52867;DHT22;38739;53.324;6.862;2023-02-01T02:00:57;6.10;99.90
52867;DHT22;38739;53.324;6.862;2023-02-01T02:03:28;6.00;99.90
52867;DHT22;38739;53.324;6.862;2023-02-01T02:05:58;6.00;99.90
52867;DHT22;38739;53.324;6.862;2023-02-01T02:08:25;5.90;99.90
52867;DHT22;38739;53.324;6.862;2023-02-01T02:10:52;5.90;99.90
52867;DHT22;38739;53.324;6.862;2023-02-01T02:13:32;6.00;99.90
52867;DHT22;38739;53.324;6.862;2023-02-01T02:36:09;5.90;99.90
52867;DHT22;38739;53.324;6.862;2023-02-01T02:41:27;5.80;99.90
52867;DHT22;38739;53.324;6.862;2023-02-01T02:44:23;5.80;99.90
52867;DHT22;38739;53.324;6.862;2023-02-01T02:47:50;5.80;99.90
52867;DHT22;38739;53.324;6.862;2023-02-01T02:50:13;5.70;99.90
52867;DHT22;38739;53.324;6.862;2023-02-01T02:53:04;5.70;99.90
52867;DHT22;38739;53.324;6.862;2023-02-01T02:55:51;5.80;99.90
52867;DHT22;38739;53.324;6.862;2023-02-01T02:58:19;5.80;99.90
52867;DHT22;38739;53.324;6.862;2023-02-01T03:01:04;5.70;99.90
52867;DHT22;38739;53.324;6.862;2023-02-01T03:03:49;5.70;99.90
52867;DHT22;38739;53.324;6.862;2023-02-01T03:06:34;5.70;99.90
52867;DHT22;38739;53.324;6.862;2023-02-01T03:09:02;5.80;99.90
52867;DHT22;38739;53.324;6.862;2023-02-01T03:11:32;5.80;99.90
52867;DHT22;38739;53.324;6.862;2023-02-01T03:14:20;5.80;99.90
52867;DHT22;38739;53.324;6.862;2023-02-01T03:16:50;5.80;99.90
52867;DHT22;38739;53.324;6.862;2023-02-01T03:19:37;5.80;99.90
52867;DHT22;38739;53.324;6.862;2023-02-01T03:22:08;5.80;99.90
52867;DHT22;38739;53.324;6.862;2023-02-01T03:25:09;5.90;99.90
52867;DHT22;38739;53.324;6.862;2023-02-01T03:27:47;5.90;99.90
52867;DHT22;38739;53.324;6.862;2023-02-01T03:30:34;5.90;99.90
52867;DHT22;38739;53.324;6.862;2023-02-01T03:33:02;5.90;99.90
52867;DHT22;38739;53.324;6.862;2023-02-01T03:44:17;6.00;99.90
52867;DHT22;38739;53.324;6.862;2023-02-01T03:49:50;6.00;99.90
52867;DHT22;38739;53.324;6.862;2023-02-01T03:52:41;6.00;99.90
52867;DHT22;38739;53.324;6.862;2023-02-01T03:55:09;6.00;99.90
52867;DHT22;38739;53.324;6.862;2023-02-01T03:57:41;5.90;99.90
52867;DHT22;38739;53.324;6.862;2023-02-01T04:00:18;5.90;99.90
52867;DHT22;38739;53.324;6.862;2023-02-01T04:02:45;5.90;99.90
52867;DHT22;38739;53.324;6.862;2023-02-01T04:05:11;5.80;99.90
52867;DHT22;38739;53.324;6.862;2023-02-01T04:07:37;5.70;99.90
52867;DHT22;38739;53.324;6.862;2023-02-01T04:10:03;5.70;99.90
52867;DHT22;38739;53.324;6.862;2023-02-01T04:12:29;5.50;99.90
52867;DHT22;38739;53.324;6.862;2023-02-01T04:14:54;5.40;99.90
52867;DHT22;38739;53.324;6.862;2023-02-01T04:17:20;5.20;99.90
52867;DHT22;38739;53.324;6.862;2023-02-01T04:19:48;5.20;99.90
52867;DHT22;38739;53.324;6.862;2023-02-01T04:22:14;5.10;99.90
52867;DHT22;38739;53.324;6.862;2023-02-01T04:24:40;5.00;99.90
52867;DHT22;38739;53.324;6.862;2023-02-01T04:27:08;5.10;99.90
52867;DHT22;38739;53.324;6.862;2023-02-01T04:29:33;5.10;99.90
52867;DHT22;38739;53.324;6.862;2023-02-01T04:32:02;5.20;99.90
52867;DHT22;38739;53.324;6.862;2023-02-01T04:34:28;5.30;99.90
52867;DHT22;38739;53.324;6.862;2023-02-01T04:36:53;5.40;99.90
52867;DHT22;38739;53.324;6.862;2023-02-01T04:39:19;5.40;99.90
52867;DHT22;38739;53.324;6.862;2023-02-01T04:41:45;5.40;99.90
52867;DHT22;38739;53.324;6.862;2023-02-01T04:44:18;5.40;99.90
52867;DHT22;38739;53.324;6.862;2023-02-01T04:46:44;5.50;99.90
52867;DHT22;38739;53.324;6.862;2023-02-01T04:49:11;5.50;99.90
52867;DHT22;38739;53.324;6.862;2023-02-01T04:51:37;5.50;99.90
52867;DHT22;38739;53.324;6.862;2023-02-01T04:54:03;5.50;99.90
52867;DHT22;38739;53.324;6.862;2023-02-01T04:56:29;5.60;99.90
52867;DHT22;38739;53.324;6.862;2023-02-01T04:58:55;5.50;99.90
52867;DHT22;38739;53.324;6.862;2023-02-01T05:01:22;5.60;99.90
52867;DHT22;38739;53.324;6.862;2023-02-01T05:03:48;5.60;99.90
52867;DHT22;38739;53.324;6.862;2023-02-01T05:06:14;5.60;99.90
52867;DHT22;38739;53.324;6.862;2023-02-01T05:08:39;5.60;99.90
52867;DHT22;38739;53.324;6.862;2023-02-01T05:11:06;5.60;99.90
52867;DHT22;38739;53.324;6.862;2023-02-01T05:13:31;5.60;99.90
52867;DHT22;38739;53.324;6.862;2023-02-01T05:16:16;5.70;99.90
52867;DHT22;38739;53.324;6.862;2023-02-01T05:18:42;5.60;99.90
52867;DHT22;38739;53.324;6.862;2023-02-01T05:21:08;5.70;99.90
52867;DHT22;38739;53.324;6.862;2023-02-01T05:23:34;5.70;99.90
52867;DHT22;38739;53.324;6.862;2023-02-01T05:26:19;5.70;99.90
52867;DHT22;38739;53.324;6.862;2023-02-01T05:28:45;5.60;99.90
52867;DHT22;38739;53.324;6.862;2023-02-01T05:31:11;5.60;99.90
52867;DHT22;38739;53.324;6.862;2023-02-01T05:33:37;5.60;99.90
52867;DHT22;38739;53.324;6.862;2023-02-01T05:36:02;5.60;99.90
52867;DHT22;38739;53.324;6.862;2023-02-01T05:38:28;5.60;99.90
52867;DHT22;38739;53.324;6.862;2023-02-01T05:40:55;5.60;99.90
52867;DHT22;38739;53.324;6.862;2023-02-01T05:43:21;5.70;99.90
52867;DHT22;38739;53.324;6.862;2023-02-01T05:45:52;5.70;99.90
52867;DHT22;38739;53.324;6.862;2023-02-01T05:48:18;5.70;99.90
52867;DHT22;38739;53.324;6.862;2023-02-01T05:50:44;5.70;99.90
52867;DHT22;38739;53.324;6.862;2023-02-01T05:53:19;5.70;99.90
52867;DHT22;38739;53.324;6.862;2023-02-01T05:56:15;5.70;99.90
52867;DHT22;38739;53.324;6.862;2023-02-01T05:58:46;5.80;99.90
52867;DHT22;38739;53.324;6.862;2023-02-01T06:01:12;5.80;99.90
52867;DHT22;38739;53.324;6.862;2023-02-01T06:03:38;5.90;99.90
52867;DHT22;38739;53.324;6.862;2023-02-01T06:06:04;5.90;99.90
52867;DHT22;38739;53.324;6.862;2023-02-01T06:08:30;5.90;99.90
52867;DHT22;38739;53.324;6.862;2023-02-01T06:11:03;5.90;99.90
52867;DHT22;38739;53.324;6.862;2023-02-01T06:13:30;5.90;99.90
52867;DHT22;38739;53.324;6.862;2023-02-01T06:15:56;5.90;99.90
52867;DHT22;38739;53.324;6.862;2023-02-01T06:18:26;5.90;99.90
52867;DHT22;38739;53.324;6.862;2023-02-01T06:20:56;5.90;99.90
52867;DHT22;38739;53.324;6.862;2023-02-01T06:23:23;5.80;99.90
52867;DHT22;38739;53.324;6.862;2023-02-01T06:25:57;5.80;99.90
52867;DHT22;38739;53.324;6.862;2023-02-01T06:28:24;5.70;99.90
52867;DHT22;38739;53.324;6.862;2023-02-01T06:30:50;5.80;99.90
52867;DHT22;38739;53.324;6.862;2023-02-01T06:33:16;5.70;99.90
52867;DHT22;38739;53.324;6.862;2023-02-01T06:35:42;5.70;99.90
52867;DHT22;38739;53.324;6.862;2023-02-01T06:38:10;5.70;99.90
52867;DHT22;38739;53.324;6.862;2023-02-01T06:40:40;5.70;99.90
52867;DHT22;38739;53.324;6.862;2023-02-01T06:43:07;5.70;99.90
52867;DHT22;38739;53.324;6.862;2023-02-01T06:45:33;5.70;99.90
52867;DHT22;38739;53.324;6.862;2023-02-01T06:47:59;5.70;99.90
52867;DHT22;38739;53.324;6.862;2023-02-01T06:50:28;5.70;99.90
52867;DHT22;38739;53.324;6.862;2023-02-01T06:52:53;5.70;99.90
52867;DHT22;38739;53.324;6.862;2023-02-01T06:55:20;5.60;99.90
52867;DHT22;38739;53.324;6.862;2023-02-01T06:57:45;5.60;99.90
52867;DHT22;38739;53.324;6.862;2023-02-01T07:00:11;5.60;99.90
52867;DHT22;38739;53.324;6.862;2023-02-01T07:02:37;5.60;99.90
52867;DHT22;38739;53.324;6.862;2023-02-01T07:05:05;5.60;99.90
52867;DHT22;38739;53.324;6.862;2023-02-01T07:07:31;5.60;99.90
52867;DHT22;38739;53.324;6.862;2023-02-01T07:09:57;5.60;99.90
52867;DHT22;38739;53.324;6.862;2023-02-01T07:12:22;5.70;99.90
52867;DHT22;38739;53.324;6.862;2023-02-01T07:14:48;5.80;99.90
52867;DHT22;38739;53.324;6.862;2023-02-01T07:17:14;5.80;99.90
52867;DHT22;38739;53.324;6.862;2023-02-01T07:19:42;5.80;99.90
52867;DHT22;38739;53.324;6.862;2023-02-01T07:22:08;5.80;99.90
52867;DHT22;38739;53.324;6.862;2023-02-01T07:24:36;5.80;99.90
52867;DHT22;38739;53.324;6.862;2023-02-01T07:27:02;5.80;99.90
52867;DHT22;38739;53.324;6.862;2023-02-01T07:29:28;5.80;99.90
52867;DHT22;38739;53.324;6.862;2023-02-01T07:31:53;5.90;99.90
52867;DHT22;38739;53.324;6.862;2023-02-01T07:34:19;5.90;99.90
52867;DHT22;38739;53.324;6.862;2023-02-01T07:36:45;5.90;99.90
52867;DHT22;38739;53.324;6.862;2023-02-01T07:39:10;6.00;99.90
52867;DHT22;38739;53.324;6.862;2023-02-01T07:41:36;5.90;99.90
52867;DHT22;38739;53.324;6.862;2023-02-01T07:44:02;6.00;99.90
52867;DHT22;38739;53.324;6.862;2023-02-01T07:46:27;6.00;99.90
52867;DHT22;38739;53.324;6.862;2023-02-01T07:48:53;6.00;99.90
52867;DHT22;38739;53.324;6.862;2023-02-01T07:51:19;6.00;99.90
52867;DHT22;38739;53.324;6.862;2023-02-01T07:53:45;6.10;99.90
52867;DHT22;38739;53.324;6.862;2023-02-01T07:56:19;6.10;99.90
52867;DHT22;38739;53.324;6.862;2023-02-01T07:58:49;6.10;99.90
52867;DHT22;38739;53.324;6.862;2023-02-01T08:01:21;6.10;99.90
52867;DHT22;38739;53.324;6.862;2023-02-01T08:03:52;6.10;99.90
52867;DHT22;38739;53.324;6.862;2023-02-01T08:06:18;6.10;99.90
52867;DHT22;38739;53.324;6.862;2023-02-01T08:08:46;6.10;99.90
52867;DHT22;38739;53.324;6.862;2023-02-01T08:11:13;6.10;99.90
52867;DHT22;38739;53.324;6.862;2023-02-01T08:13:39;6.10;99.90
52867;DHT22;38739;53.324;6.862;2023-02-01T08:16:07;6.10;99.90
52867;DHT22;38739;53.324;6.862;2023-02-01T08:18:34;6.10;99.90
52867;DHT22;38739;53.324;6.862;2023-02-01T08:23:35;6.10;99.90
52867;DHT22;38739;53.324;6.862;2023-02-01T08:26:10;6.10;99.90
52867;DHT22;38739;53.324;6.862;2023-02-01T08:28:37;6.10;99.90
52867;DHT22;38739;53.324;6.862;2023-02-01T08:31:13;6.10;99.90
52867;DHT22;38739;53.324;6.862;2023-02-01T08:33:44;6.10;99.90
52867;DHT22;38739;53.324;6.862;2023-02-01T08:36:15;6.10;99.90
52867;DHT22;38739;53.324;6.862;2023-02-01T08:38:44;6.10;99.90
52867;DHT22;38739;53.324;6.862;2023-02-01T08:41:12;6.20;99.90
52867;DHT22;38739;53.324;6.862;2023-02-01T08:43:47;6.20;99.90
52867;DHT22;38739;53.324;6.862;2023-02-01T08:46:19;6.20;99.90
52867;DHT22;38739;53.324;6.862;2023-02-01T08:48:46;6.20;99.90
52867;DHT22;38739;53.324;6.862;2023-02-01T08:51:14;6.20;99.90
52867;DHT22;38739;53.324;6.862;2023-02-01T08:53:42;6.20;99.90
52867;DHT22;38739;53.324;6.862;2023-02-01T08:56:13;6.20;99.90
52867;DHT22;38739;53.324;6.862;2023-02-01T08:58:39;6.20;99.90
52867;DHT22;38739;53.324;6.862;2023-02-01T09:01:07;6.20;99.90
52867;DHT22;38739;53.324;6.862;2023-02-01T09:03:33;6.20;99.90
52867;DHT22;38739;53.324;6.862;2023-02-01T09:06:03;6.20;99.90
52867;DHT22;38739;53.324;6.862;2023-02-01T09:08:29;6.30;99.90
52867;DHT22;38739;53.324;6.862;2023-02-01T09:11:04;6.30;99.90
52867;DHT22;38739;53.324;6.862;2023-02-01T09:13:31;6.30;99.90
52867;DHT22;38739;53.324;6.862;2023-02-01T09:15:56;6.30;99.90
52867;DHT22;38739;53.324;6.862;2023-02-01T09:18:22;6.30;99.90
52867;DHT22;38739;53.324;6.862;2023-02-01T09:20:48;6.30;99.90
52867;DHT22;38739;53.324;6.862;2023-02-01T09:23:14;6.30;99.90
52867;DHT22;38739;53.324;6.862;2023-02-01T09:25:40;6.30;99.90
52867;DHT22;38739;53.324;6.862;2023-02-01T09:28:06;6.30;99.90
52867;DHT22;38739;53.324;6.862;2023-02-01T09:30:33;6.30;99.90
52867;DHT22;38739;53.324;6.862;2023-02-01T09:32:59;6.30;99.90
52867;DHT22;38739;53.324;6.862;2023-02-01T09:35:25;6.40;99.90
52867;DHT22;38739;53.324;6.862;2023-02-01T09:37:52;6.40;99.90
52867;DHT22;38739;53.324;6.862;2023-02-01T09:40:18;6.40;99.90
52867;DHT22;38739;53.324;6.862;2023-02-01T09:42:55;6.40;99.90
52867;DHT22;38739;53.324;6.862;2023-02-01T09:48:20;6.40;99.90
52867;DHT22;38739;53.324;6.862;2023-02-01T09:50:56;6.40;99.90
52867;DHT22;38739;53.324;6.862;2023-02-01T09:53:33;6.40;99.90
52867;DHT22;38739;53.324;6.862;2023-02-01T09:56:06;6.40;99.90
52867;DHT22;38739;53.324;6.862;2023-02-01T09:58:36;6.40;99.90
52867;DHT22;38739;53.324;6.862;2023-02-01T10:01:09;6.30;99.90
52867;DHT22;38739;53.324;6.862;2023-02-01T10:03:36;6.30;99.90
52867;DHT22;38739;53.324;6.862;2023-02-01T10:14:44;6.10;99.90
52867;DHT22;38739;53.324;6.862;2023-02-01T10:22:58;6.00;99.90
52867;DHT22;38739;53.324;6.862;2023-02-01T10:28:28;6.00;99.90
52867;DHT22;38739;53.324;6.862;2023-02-01T10:30:58;6.00;99.90
52867;DHT22;38739;53.324;6.862;2023-02-01T10:33:34;6.00;99.90
52867;DHT22;38739;53.324;6.862;2023-02-01T10:38:43;6.00;99.90
52867;DHT22;38739;53.324;6.862;2023-02-01T10:41:17;6.00;99.90
52867;DHT22;38739;53.324;6.862;2023-02-01T10:43:51;6.00;99.90
52867;DHT22;38739;53.324;6.862;2023-02-01T10:46:22;6.00;99.90
52867;DHT22;38739;53.324;6.862;2023-02-01T10:48:49;6.10;99.90
52867;DHT22;38739;53.324;6.862;2023-02-01T10:51:21;6.10;99.90
52867;DHT22;38739;53.324;6.862;2023-02-01T10:54:03;6.10;99.90
52867;DHT22;38739;53.324;6.862;2023-02-01T10:56:38;6.20;99.90
52867;DHT22;38739;53.324;6.862;2023-02-01T10:59:11;6.30;99.90
52867;DHT22;38739;53.324;6.862;2023-02-01T11:01:41;6.40;99.90
52867;DHT22;38739;53.324;6.862;2023-02-01T11:04:13;6.40;99.90
52867;DHT22;38739;53.324;6.862;2023-02-01T11:09:39;5.60;99.90
52867;DHT22;38739;53.324;6.862;2023-02-01T11:12:24;5.10;99.90
52867;DHT22;38739;53.324;6.862;2023-02-01T11:14:50;4.60;99.90
52867;DHT22;38739;53.324;6.862;2023-02-01T11:17:24;4.30;99.90
52867;DHT22;38739;53.324;6.862;2023-02-01T11:20:00;4.10;99.90
52867;DHT22;38739;53.324;6.862;2023-02-01T11:22:27;3.90;99.90
52867;DHT22;38739;53.324;6.862;2023-02-01T11:24:55;3.80;99.90
52867;DHT22;38739;53.324;6.862;2023-02-01T11:27:24;3.70;99.90
52867;DHT22;38739;53.324;6.862;2023-02-01T11:29:53;3.70;99.90
52867;DHT22;38739;53.324;6.862;2023-02-01T11:32:21;3.60;99.90
52867;DHT22;38739;53.324;6.862;2023-02-01T11:34:53;3.60;99.90
52867;DHT22;38739;53.324;6.862;2023-02-01T11:37:25;3.60;99.90
52867;DHT22;38739;53.324;6.862;2023-02-01T11:45:29;3.50;99.90
52867;DHT22;38739;53.324;6.862;2023-02-01T11:47:57;3.50;99.90
52867;DHT22;38739;53.324;6.862;2023-02-01T12:11:52;3.90;99.90
52867;DHT22;38739;53.324;6.862;2023-02-01T12:17:17;3.90;99.90
52867;DHT22;38739;53.324;6.862;2023-02-01T12:20:02;4.00;99.90
52867;DHT22;38739;53.324;6.862;2023-02-01T12:32:13;4.20;99.90
52867;DHT22;38739;53.324;6.862;2023-02-01T12:42:32;4.70;99.90
52867;DHT22;38739;53.324;6.862;2023-02-01T12:45:30;4.70;99.90
52867;DHT22;38739;53.324;6.862;2023-02-01T12:51:07;4.90;99.90
52867;DHT22;38739;53.324;6.862;2023-02-01T12:56:52;5.20;99.90
52867;DHT22;38739;53.324;6.862;2023-02-01T12:59:40;5.30;99.90
52867;DHT22;38739;53.324;6.862;2023-02-01T13:02:24;5.50;99.90
52867;DHT22;38739;53.324;6.862;2023-02-01T13:05:17;5.70;99.90
52867;DHT22;38739;53.324;6.862;2023-02-01T13:10:57;6.00;99.90
52867;DHT22;38739;53.324;6.862;2023-02-01T13:16:35;6.40;99.90
52867;DHT22;38739;53.324;6.862;2023-02-01T13:21:57;6.70;99.90
52867;DHT22;38739;53.324;6.862;2023-02-01T13:24:49;6.80;99.90
52867;DHT22;38739;53.324;6.862;2023-02-01T13:27:16;6.80;99.90
52867;DHT22;38739;53.324;6.862;2023-02-01T13:30:05;7.00;99.90
52867;DHT22;38739;53.324;6.862;2023-02-01T13:41:21;7.20;99.90
52867;DHT22;38739;53.324;6.862;2023-02-01T13:43:50;7.20;99.90
52867;DHT22;38739;53.324;6.862;2023-02-01T13:46:17;7.20;99.90
52867;DHT22;38739;53.324;6.862;2023-02-01T13:48:58;7.20;99.90
52867;DHT22;38739;53.324;6.862;2023-02-01T13:53:57;7.30;99.90
52867;DHT22;38739;53.324;6.862;2023-02-01T13:56:26;7.40;99.90
52867;DHT22;38739;53.324;6.862;2023-02-01T13:58:51;7.40;99.90
52867;DHT22;38739;53.324;6.862;2023-02-01T14:11:53;7.30;99.90
52867;DHT22;38739;53.324;6.862;2023-02-01T14:19:27;7.40;99.90
52867;DHT22;38739;53.324;6.862;2023-02-01T14:24:54;7.30;99.90
52867;DHT22;38739;53.324;6.862;2023-02-01T14:27:29;7.30;99.90
52867;DHT22;38739;53.324;6.862;2023-02-01T14:30:04;7.30;99.90
52867;DHT22;38739;53.324;6.862;2023-02-01T14:32:33;7.30;99.90
52867;DHT22;38739;53.324;6.862;2023-02-01T14:35:02;7.30;99.90
52867;DHT22;38739;53.324;6.862;2023-02-01T14:37:36;7.20;99.90
52867;DHT22;38739;53.324;6.862;2023-02-01T14:50:36;7.20;99.90
52867;DHT22;38739;53.324;6.862;2023-02-01T15:00:57;7.40;99.90
52867;DHT22;38739;53.324;6.862;2023-02-01T15:06:30;7.30;99.90
52867;DHT22;38739;53.324;6.862;2023-02-01T15:09:03;7.40;99.90
52867;DHT22;38739;53.324;6.862;2023-02-01T15:11:29;7.40;99.90
52867;DHT22;38739;53.324;6.862;2023-02-01T15:14:13;7.40;99.90
52867;DHT22;38739;53.324;6.862;2023-02-01T15:16:42;7.40;99.90
52867;DHT22;38739;53.324;6.862;2023-02-01T15:19:13;7.30;99.90
52867;DHT22;38739;53.324;6.862;2023-02-01T15:21:47;7.30;99.90
52867;DHT22;38739;53.324;6.862;2023-02-01T15:26:45;7.10;99.90
52867;DHT22;38739;53.324;6.862;2023-02-01T15:29:13;7.10;99.90
52867;DHT22;38739;53.324;6.862;2023-02-01T15:31:45;7.00;99.90
52867;DHT22;38739;53.324;6.862;2023-02-01T15:34:12;7.00;99.90
52867;DHT22;38739;53.324;6.862;2023-02-01T15:36:38;6.90;99.90
52867;DHT22;38739;53.324;6.862;2023-02-01T15:39:19;6.90;99.90
52867;DHT22;38739;53.324;6.862;2023-02-01T15:41:51;6.80;99.90
52867;DHT22;38739;53.324;6.862;2023-02-01T15:44:29;6.80;99.90
52867;DHT22;38739;53.324;6.862;2023-02-01T15:46:56;6.80;99.90
52867;DHT22;38739;53.324;6.862;2023-02-01T15:49:31;6.80;99.90
52867;DHT22;38739;53.324;6.862;2023-02-01T15:52:01;6.70;99.90
52867;DHT22;38739;53.324;6.862;2023-02-01T15:54:46;6.70;99.90
52867;DHT22;38739;53.324;6.862;2023-02-01T15:57:28;6.70;99.90
52867;DHT22;38739;53.324;6.862;2023-02-01T16:00:06;6.70;99.90
52867;DHT22;38739;53.324;6.862;2023-02-01T16:02:36;6.60;99.90
52867;DHT22;38739;53.324;6.862;2023-02-01T16:05:04;6.70;99.90
52867;DHT22;38739;53.324;6.862;2023-02-01T16:07:33;6.60;99.90
52867;DHT22;38739;53.324;6.862;2023-02-01T16:10:01;6.60;99.90
52867;DHT22;38739;53.324;6.862;2023-02-01T16:15:06;6.60;99.90
52867;DHT22;38739;53.324;6.862;2023-02-01T16:17:32;6.60;99.90
52867;DHT22;38739;53.324;6.862;2023-02-01T16:19:58;6.60;99.90
52867;DHT22;38739;53.324;6.862;2023-02-01T16:22:24;6.60;99.90
52867;DHT22;38739;53.324;6.862;2023-02-01T16:24:53;6.60;99.90
52867;DHT22;38739;53.324;6.862;2023-02-01T16:27:18;6.50;99.90
52867;DHT22;38739;53.324;6.862;2023-02-01T16:29:48;6.50;99.90
52867;DHT22;38739;53.324;6.862;2023-02-01T16:32:21;6.50;99.90
52867;DHT22;38739;53.324;6.862;2023-02-01T16:34:47;6.50;99.90
52867;DHT22;38739;53.324;6.862;2023-02-01T16:37:21;6.50;99.90
52867;DHT22;38739;53.324;6.862;2023-02-01T16:39:46;6.40;99.90
52867;DHT22;38739;53.324;6.862;2023-02-01T16:42:13;6.40;99.90
52867;DHT22;38739;53.324;6.862;2023-02-01T16:44:42;6.40;99.90
52867;DHT22;38739;53.324;6.862;2023-02-01T16:47:19;6.40;99.90
52867;DHT22;38739;53.324;6.862;2023-02-01T16:49:46;6.40;99.90
52867;DHT22;38739;53.324;6.862;2023-02-01T16:52:16;6.30;99.90
52867;DHT22;38739;53.324;6.862;2023-02-01T16:54:43;6.40;99.90
52867;DHT22;38739;53.324;6.862;2023-02-01T16:57:16;6.30;99.90
52867;DHT22;38739;53.324;6.862;2023-02-01T16:59:45;6.30;99.90
52867;DHT22;38739;53.324;6.862;2023-02-01T17:02:12;6.30;99.90
52867;DHT22;38739;53.324;6.862;2023-02-01T17:04:39;6.40;99.90
52867;DHT22;38739;53.324;6.862;2023-02-01T17:07:04;6.30;99.90
52867;DHT22;38739;53.324;6.862;2023-02-01T17:09:43;6.30;99.90
52867;DHT22;38739;53.324;6.862;2023-02-01T17:12:27;6.30;99.90
52867;DHT22;38739;53.324;6.862;2023-02-01T17:14:55;6.30;99.90
52867;DHT22;38739;53.324;6.862;2023-02-01T17:17:21;6.30;99.90
52867;DHT22;38739;53.324;6.862;2023-02-01T17:19:50;6.30;99.90
52867;DHT22;38739;53.324;6.862;2023-02-01T17:22:40;6.30;99.90
52867;DHT22;38739;53.324;6.862;2023-02-01T17:25:14;6.30;99.90
52867;DHT22;38739;53.324;6.862;2023-02-01T17:27:41;6.30;99.90
52867;DHT22;38739;53.324;6.862;2023-02-01T17:30:07;6.30;99.90
52867;DHT22;38739;53.324;6.862;2023-02-01T17:32:35;6.20;99.90
52867;DHT22;38739;53.324;6.862;2023-02-01T17:35:01;6.20;99.90
52867;DHT22;38739;53.324;6.862;2023-02-01T17:37:30;6.20;99.90
52867;DHT22;38739;53.324;6.862;2023-02-01T17:39:56;6.20;99.90
52867;DHT22;38739;53.324;6.862;2023-02-01T17:42:24;6.10;99.90
52867;DHT22;38739;53.324;6.862;2023-02-01T17:44:52;6.10;99.90
52867;DHT22;38739;53.324;6.862;2023-02-01T17:47:20;6.10;99.90
52867;DHT22;38739;53.324;6.862;2023-02-01T17:49:49;6.00;99.90
52867;DHT22;38739;53.324;6.862;2023-02-01T17:52:22;6.00;99.90
52867;DHT22;38739;53.324;6.862;2023-02-01T17:54:48;6.00;99.90
52867;DHT22;38739;53.324;6.862;2023-02-01T17:57:18;6.00;99.90
52867;DHT22;38739;53.324;6.862;2023-02-01T17:59:47;6.00;99.90
52867;DHT22;38739;53.324;6.862;2023-02-01T18:02:23;5.90;99.90
52867;DHT22;38739;53.324;6.862;2023-02-01T18:04:50;5.90;99.90
52867;DHT22;38739;53.324;6.862;2023-02-01T18:07:16;6.00;99.90
52867;DHT22;38739;53.324;6.862;2023-02-01T18:09:42;6.00;99.90
52867;DHT22;38739;53.324;6.862;2023-02-01T18:12:28;6.00;99.90
52867;DHT22;38739;53.324;6.862;2023-02-01T18:14:58;6.00;99.90
52867;DHT22;38739;53.324;6.862;2023-02-01T18:17:30;6.00;99.90
52867;DHT22;38739;53.324;6.862;2023-02-01T18:19:58;6.00;99.90
52867;DHT22;38739;53.324;6.862;2023-02-01T18:22:24;6.00;99.90
52867;DHT22;38739;53.324;6.862;2023-02-01T18:24:50;6.00;99.90
52867;DHT22;38739;53.324;6.862;2023-02-01T18:27:17;5.90;99.90
52867;DHT22;38739;53.324;6.862;2023-02-01T18:29:42;5.90;99.90
52867;DHT22;38739;53.324;6.862;2023-02-01T18:32:08;5.90;99.90
52867;DHT22;38739;53.324;6.862;2023-02-01T18:34:35;5.90;99.90
52867;DHT22;38739;53.324;6.862;2023-02-01T18:37:00;5.90;99.90
52867;DHT22;38739;53.324;6.862;2023-02-01T18:39:26;5.90;99.90
52867;DHT22;38739;53.324;6.862;2023-02-01T18:41:52;5.90;99.90
52867;DHT22;38739;53.324;6.862;2023-02-01T18:44:17;5.90;99.90
52867;DHT22;38739;53.324;6.862;2023-02-01T18:46:43;5.90;99.90
52867;DHT22;38739;53.324;6.862;2023-02-01T18:49:09;5.90;99.90
52867;DHT22;38739;53.324;6.862;2023-02-01T18:51:38;5.90;99.90
52867;DHT22;38739;53.324;6.862;2023-02-01T18:54:04;5.80;99.90
52867;DHT22;38739;53.324;6.862;2023-02-01T18:56:30;5.80;99.90
52867;DHT22;38739;53.324;6.862;2023-02-01T18:58:56;5.80;99.90
52867;DHT22;38739;53.324;6.862;2023-02-01T19:01:24;5.70;99.90
52867;DHT22;38739;53.324;6.862;2023-02-01T19:03:53;5.80;99.90
52867;DHT22;38739;53.324;6.862;2023-02-01T19:06:28;5.70;99.90